ADDS METAR Data INFO
IDs: Format: Raw Decoded Include TAF

Data at: 2010 UTC 18 Jul 2018

KSGJ 181956Z 19010KT 10SM BKN110 27/24 A3000 RMK AO2 LTG DSNT SE SLP156 T02720239
KSGJ 181856Z 20007KT 10SM SCT039 BKN090 BKN110 26/23 A3000 RMK AO2 LTG DSNT E TSE1759RAB04E48 SLP158 P0001 T02560233
KSGJ 181805Z 23008KT 10SM -RA FEW047 BKN100 OVC110 26/22 A3000 RMK AO2 LTG DSNT ALQDS TSE1759RAB04 P0000
KSGJ 181756Z 22005KT 10SM VCTS SCT031 BKN039 BKN100 26/22 A3001 RMK AO2 LTG DSNT ALQDS SLP160 60001 T02610222 10317 20261 58004
KSGJ 181703Z 23008KT 10SM VCTS FEW055 SCT110 28/24 A3002 RMK AO2 LTG DSNT ALQDS
KSGJ 181619Z 26006KT 10SM -TSRA BKN027 BKN033 BKN044 27/24 A3003 RMK AO2 LTG DSNT ALQDS TSB13RAB1557 P0001
KSGJ 181556Z 28008KT 250V310 8SM BKN027 BKN046 31/24 A3002 RMK AO2 LTG DSNT SE RAB10E22 SLP166 P0000 T03110244
KSGJ 181553Z 27007KT 10SM BKN027 BKN046 31/24 A3002 RMK AO2 LTG DSNT SE RAB10E22 P0000
KSGJ 181510Z 27010KT 7SM -RA SCT024 SCT048 BKN065 31/25 A3003 RMK AO2 RAB10 P0000
KSGJ 181456Z 26009KT 10SM BKN024 BKN048 30/25 A3003 RMK AO2 SLP167 T03000250 55001
KSGJ 181412Z 27011KT 10SM BKN022 30/24 A3002 RMK AO2
KSGJ 181404Z 24009KT 10SM SCT020 29/25 A3002 RMK AO2
KSGJ 181356Z 26007KT 10SM BKN018 29/25 A3003 RMK AO2 SLP166 T02940250
KSGJ 181353Z 27007KT 10SM BKN018 29/25 A3003 RMK AO2
KSGJ 181256Z 25008KT 10SM CLR 28/25 A3003 RMK AO2 SLP168 T02780250
KSGJ 181156Z 22006KT 10SM CLR 26/24 A3002 RMK AO2 SLP164 70009 T02610244 10261 20250 53007
KSGJ 181056Z 22006KT 10SM FEW100 25/24 A3001 RMK AO2 SLP160 T02500244
KSGJ 180956Z AUTO 22005KT 10SM CLR 26/24 A3000 RMK AO2 SLP156 T02560244
KSGJ 180856Z AUTO 21005KT 10SM FEW024 26/24 A3000 RMK AO2 SLP157 T02560244 58013
KSGJ 180756Z AUTO 22005KT 10SM CLR 25/24 A3001 RMK AO2 SLP161 T02500244
KSGJ 180656Z AUTO 21004KT 10SM CLR 26/24 A3003 RMK AO2 SLP167 T02560244
KSGJ 180556Z AUTO 21005KT 10SM CLR 25/24 A3003 RMK AO2 SLP169 T02500239 10256 20250 58005
KSGJ 180456Z AUTO 19005KT 10SM CLR 25/24 A3005 RMK AO2 SLP173 T02500239 403390244
KSGJ 180356Z AUTO 21005KT 10SM CLR 25/24 A3005 RMK AO2 SLP173 T02500239
KSGJ 180256Z AUTO 21004KT 10SM CLR 25/24 A3005 RMK AO2 SLP174 T02500239 53007
KSGJ 180156Z AUTO 22005KT 10SM CLR 25/24 A3004 RMK AO2 SLP170 T02500239
KSGJ 180056Z AUTO 20006KT 10SM CLR 26/24 A3002 RMK AO2 SLP166 T02560244
KSGJ 172356Z 26005KT 10SM CLR 26/24 A3003 RMK AO2 SLP167 60008 T02560244 10256 20244 56004
KSGJ 172256Z 20007KT 10SM CLR 26/24 A3003 RMK AO2 SLP169 T02560244
KSGJ 172156Z 27004KT 5SM BR CLR 25/24 A3003 RMK AO2 RAE34 SLP168 P0000 T02500239
KSGJ 172056Z 27005KT 5SM -RA BR FEW055 BKN070 OVC090 25/24 A3004 RMK AO2 SLP171 P0002 60008 T02500239 58011
KSGJ 171956Z 24003KT 5SM -RA BR OVC095 24/23 A3006 RMK AO2 LTG DSNT SE SLP178 P0005 T02440233
KSGJ 171856Z 28004KT 10SM -RA BKN100 BKN120 25/22 A3008 RMK AO2 LTG DSNT ALQDS TSE33RAE02B24 SLP184 P0001 T02500222
KSGJ 171839Z 21004KT 10SM -RA FEW043 SCT070 BKN120 25/22 A3009 RMK AO2 LTG DSNT ALQDS TSE33RAE02B24 P0000
KSGJ 171756Z 23011G16KT 10SM VCTS -RA FEW032 BKN065 OVC110 26/22 A3007 RMK AO2 PK WND 24029/1724 LTG DSNT ALQDS TSB07RAB33 SLP183 P0001 60001 T02560217 10339 20256 55000
KSGJ 171713Z 24010KT 10SM VCTS SCT041 BKN048 BKN065 33/24 A3005 RMK AO2 LTG DSNT SW-N TSB07
KSGJ 171656Z 20009KT 10SM SCT037 SCT049 33/23 A3005 RMK AO2 LTG DSNT SW-N SLP174 T03280233
KSGJ 171556Z 23007KT 10SM FEW032 SCT095 33/24 A3006 RMK AO2 SLP180 T03280239
KSGJ 171508Z 22009KT 10SM BKN030 32/24 A3007 RMK AO2
KSGJ 171456Z 22010KT 10SM BKN025 32/24 A3007 RMK AO2 SLP183 T03170244 55006
KSGJ 171356Z 22007KT 10SM CLR 30/25 A3009 RMK AO2 SLP188 T03000250
KSGJ 171256Z 21007KT 10SM CLR 28/24 A3009 RMK AO2 SLP188 T02780244
KSGJ 171156Z 22005KT 10SM CLR 27/24 A3008 RMK AO2 SLP183 T02670239 10267 20244 53009
KSGJ 171056Z 21005KT 10SM CLR 24/23 A3006 RMK AO2 SLP179 T02440233
KSGJ 170956Z AUTO 22004KT 10SM CLR 24/23 A3005 RMK AO2 SLP176 T02440233
KSGJ 170856Z AUTO 23005KT 10SM CLR 24/23 A3005 RMK AO2 SLP174 T02440233 56009